Time;durP1;ratioP1;P1;durP2;ratioP2;P2;SDS_P1;SDS_P2;PMS_P1;PMS_P2;Temp;Humidity;BMP_temperature;BMP_pressure;BME280_temperature;BME280_humidity;BME280_pressure;Samples;Min_cycle;Max_cycle;Signal;HPM_P1;HPM_P2
2023/04/04 00:01:05;;;;;;;;;;;0.50;99.90;;;;;;5066885;28;20465;-49
2023/04/04 00:03:31;;;;;;;;;;;0.60;99.90;;;;;;5053561;28;20340;-48
2023/04/04 00:05:58;;;;;;;;;;;0.50;99.90;;;;;;5053189;28;19924;-50
2023/04/04 00:08:25;;;;;;;;;;;0.60;99.90;;;;;;5054261;28;20301;-48
2023/04/04 00:11:01;;;;;;;;;;;0.60;99.90;;;;;;5052520;28;19952;-50
2023/04/04 00:13:28;;;;;;;;;;;0.60;99.90;;;;;;5054370;28;20041;-47
2023/04/04 00:15:56;;;;;;;;;;;0.60;99.90;;;;;;5054502;28;19921;-48
2023/04/04 00:18:22;;;;;;;;;;;0.60;99.90;;;;;;5056848;28;20357;-49
2023/04/04 00:20:49;;;;;;;;;;;0.60;99.90;;;;;;5057633;28;20381;-48
2023/04/04 00:23:16;;;;;;;;;;;0.50;99.90;;;;;;5056380;28;19971;-48
2023/04/04 00:25:48;;;;;;;;;;;0.50;99.90;;;;;;5032887;28;20408;-48
2023/04/04 00:28:14;;;;;;;;;;;0.40;99.90;;;;;;5033692;28;20405;-48
2023/04/04 00:30:41;;;;;;;;;;;0.40;99.90;;;;;;5041488;28;19924;-47
2023/04/04 00:33:08;;;;;;;;;;;0.30;99.90;;;;;;5054783;28;19963;-48
2023/04/04 00:35:35;;;;;;;;;;;0.30;99.90;;;;;;5054061;28;19931;-48
2023/04/04 00:38:02;;;;;;;;;;;0.30;99.90;;;;;;5054184;28;20381;-48
2023/04/04 00:40:29;;;;;;;;;;;0.30;99.90;;;;;;5053144;28;19920;-48
2023/04/04 00:42:59;;;;;;;;;;;0.20;99.90;;;;;;5044315;28;19975;-48
2023/04/04 00:45:26;;;;;;;;;;;0.10;99.90;;;;;;5054332;28;20400;-50
2023/04/04 00:47:53;;;;;;;;;;;0.10;99.90;;;;;;5039062;28;19921;-48
2023/04/04 00:50:20;;;;;;;;;;;0.10;99.90;;;;;;5052934;28;20015;-48
2023/04/04 00:52:47;;;;;;;;;;;0.10;99.90;;;;;;5053337;28;20296;-48
2023/04/04 00:55:14;;;;;;;;;;;0.10;99.90;;;;;;5032393;28;20015;-47
2023/04/04 00:57:40;;;;;;;;;;;0.10;99.90;;;;;;5053602;28;19921;-48
2023/04/04 01:00:07;;;;;;;;;;;0.00;99.90;;;;;;5035268;28;20439;-48
2023/04/04 01:02:34;;;;;;;;;;;0.00;99.90;;;;;;5034749;28;20385;-48
2023/04/04 01:05:01;;;;;;;;;;;0.00;99.90;;;;;;5034564;28;20384;-48
2023/04/04 01:07:28;;;;;;;;;;;-0.10;99.90;;;;;;5053534;28;19927;-48
2023/04/04 01:09:55;;;;;;;;;;;-0.10;99.90;;;;;;5053777;28;20384;-50
2023/04/04 01:12:22;;;;;;;;;;;-0.10;99.90;;;;;;5053759;28;20266;-48
2023/04/04 01:14:49;;;;;;;;;;;-0.20;99.90;;;;;;5034983;28;19925;-48
2023/04/04 01:17:16;;;;;;;;;;;-0.20;99.90;;;;;;5035226;28;19970;-47
2023/04/04 01:19:45;;;;;;;;;;;-0.20;99.90;;;;;;5039149;28;21599;-49
2023/04/04 01:22:17;;;;;;;;;;;-0.20;99.90;;;;;;5035095;28;19973;-49
2023/04/04 01:24:45;;;;;;;;;;;-0.20;99.90;;;;;;5033817;28;20504;-49
2023/04/04 01:27:13;;;;;;;;;;;-0.30;99.90;;;;;;5043541;28;19925;-48
2023/04/04 01:29:46;;;;;;;;;;;-0.20;99.90;;;;;;5031685;28;19920;-48
2023/04/04 01:32:18;;;;;;;;;;;-0.20;99.90;;;;;;5042790;28;19931;-48
2023/04/04 01:34:57;;;;;;;;;;;-0.20;99.90;;;;;;5033301;28;19970;-51
2023/04/04 01:37:51;;;;;;;;;;;-0.20;99.90;;;;;;5028068;28;19928;-48
2023/04/04 01:40:23;;;;;;;;;;;-0.20;99.90;;;;;;5052528;28;20420;-49
2023/04/04 01:42:52;;;;;;;;;;;-0.20;99.90;;;;;;5029621;28;20326;-50
2023/04/04 01:45:21;;;;;;;;;;;-0.10;99.90;;;;;;5036172;28;19928;-50
2023/04/04 01:47:48;;;;;;;;;;;-0.10;99.90;;;;;;5034462;28;20007;-47
2023/04/04 01:50:19;;;;;;;;;;;0.00;99.90;;;;;;5034775;28;20368;-47
2023/04/04 01:52:46;;;;;;;;;;;0.00;99.90;;;;;;5037269;28;19921;-48
2023/04/04 01:55:13;;;;;;;;;;;0.00;99.90;;;;;;5051229;28;20292;-47
2023/04/04 01:57:40;;;;;;;;;;;0.00;99.90;;;;;;5046606;28;20369;-49
2023/04/04 02:00:07;;;;;;;;;;;0.00;99.90;;;;;;5047457;28;19975;-48
2023/04/04 02:02:43;;;;;;;;;;;0.00;99.90;;;;;;5032434;28;20017;-49
2023/04/04 02:05:10;;;;;;;;;;;0.00;99.90;;;;;;5047832;28;19925;-48
2023/04/04 02:07:37;;;;;;;;;;;0.00;99.90;;;;;;5050840;28;19925;-50
2023/04/04 02:10:11;;;;;;;;;;;0.00;99.90;;;;;;5042593;28;19929;-48
2023/04/04 02:12:38;;;;;;;;;;;-0.10;99.90;;;;;;5048933;28;19924;-48
2023/04/04 02:15:05;;;;;;;;;;;-0.10;99.90;;;;;;5052221;28;19927;-48
2023/04/04 02:17:33;;;;;;;;;;;-0.10;99.90;;;;;;5051230;28;20292;-48
2023/04/04 02:20:00;;;;;;;;;;;-0.20;99.90;;;;;;5034151;28;19920;-48
2023/04/04 02:22:27;;;;;;;;;;;-0.20;99.90;;;;;;5051278;28;19928;-49
2023/04/04 02:24:55;;;;;;;;;;;-0.20;99.90;;;;;;5034404;28;19920;-48
2023/04/04 02:27:22;;;;;;;;;;;-0.20;99.90;;;;;;5050048;28;19929;-47
2023/04/04 02:29:48;;;;;;;;;;;-0.20;99.90;;;;;;5024359;28;20357;-48
2023/04/04 02:32:15;;;;;;;;;;;-0.30;99.90;;;;;;5032883;28;19978;-48
2023/04/04 02:34:42;;;;;;;;;;;-0.30;99.90;;;;;;5034080;28;20411;-48
2023/04/04 02:37:09;;;;;;;;;;;-0.30;99.90;;;;;;5057456;28;19959;-49
2023/04/04 02:39:35;;;;;;;;;;;-0.30;99.90;;;;;;5033427;28;20460;-50
2023/04/04 02:42:02;;;;;;;;;;;-0.30;99.90;;;;;;5050486;28;19924;-48
2023/04/04 02:44:29;;;;;;;;;;;-0.30;99.90;;;;;;5050526;28;19925;-50
2023/04/04 02:46:56;;;;;;;;;;;-0.30;99.90;;;;;;5032653;28;19927;-47
2023/04/04 02:49:28;;;;;;;;;;;-0.30;99.90;;;;;;5033518;28;19927;-48
2023/04/04 02:51:56;;;;;;;;;;;-0.30;99.90;;;;;;5050262;28;20003;-47
2023/04/04 02:54:26;;;;;;;;;;;-0.30;99.90;;;;;;5050048;28;19921;-48
2023/04/04 02:56:53;;;;;;;;;;;-0.40;99.90;;;;;;5041044;28;19921;-49
2023/04/04 02:59:20;;;;;;;;;;;-0.40;99.90;;;;;;5050043;28;20451;-48
2023/04/04 03:01:46;;;;;;;;;;;-0.50;99.90;;;;;;5050636;28;20024;-48
2023/04/04 03:04:13;;;;;;;;;;;-0.50;99.90;;;;;;5033763;28;19970;-48
2023/04/04 03:06:42;;;;;;;;;;;-0.60;99.90;;;;;;5033335;28;19920;-49
2023/04/04 03:09:09;;;;;;;;;;;-0.60;99.90;;;;;;5030765;28;19976;-48
2023/04/04 03:11:36;;;;;;;;;;;-0.70;99.90;;;;;;5033518;28;19921;-48
2023/04/04 03:14:02;;;;;;;;;;;-0.60;99.90;;;;;;5032601;28;19924;-47
2023/04/04 03:16:37;;;;;;;;;;;-0.60;99.90;;;;;;5032773;28;19921;-51
2023/04/04 03:19:06;;;;;;;;;;;-0.60;99.90;;;;;;5033313;28;19925;-47
2023/04/04 03:21:32;;;;;;;;;;;-0.70;99.90;;;;;;5042029;28;19928;-48
2023/04/04 03:23:59;;;;;;;;;;;-0.70;99.90;;;;;;5031016;28;20512;-48
2023/04/04 03:26:28;;;;;;;;;;;-0.70;99.90;;;;;;5031134;28;19920;-47
2023/04/04 03:28:54;;;;;;;;;;;-0.70;99.90;;;;;;5053550;28;19921;-47
2023/04/04 03:31:23;;;;;;;;;;;-0.80;99.90;;;;;;5049305;28;20011;-47
2023/04/04 03:33:50;;;;;;;;;;;-0.80;99.90;;;;;;5051006;28;19921;-49
2023/04/04 03:36:17;;;;;;;;;;;-0.70;99.90;;;;;;5018915;28;19921;-48
2023/04/04 03:38:47;;;;;;;;;;;-0.80;99.90;;;;;;5033249;28;19936;-48
2023/04/04 03:41:14;;;;;;;;;;;-0.80;99.90;;;;;;5052409;28;19920;-49
2023/04/04 03:43:41;;;;;;;;;;;-0.80;99.90;;;;;;5055293;28;19921;-48
2023/04/04 03:46:07;;;;;;;;;;;-0.80;99.90;;;;;;5033837;28;20335;-49
2023/04/04 03:48:34;;;;;;;;;;;-0.80;99.90;;;;;;5035074;28;19927;-47
2023/04/04 03:51:04;;;;;;;;;;;-0.80;99.90;;;;;;5038573;28;19948;-49
2023/04/04 03:53:31;;;;;;;;;;;-0.80;99.90;;;;;;5053451;28;19927;-48
2023/04/04 03:55:58;;;;;;;;;;;-0.80;99.90;;;;;;5051723;28;19928;-49
2023/04/04 03:58:27;;;;;;;;;;;-0.80;99.90;;;;;;5047768;28;20340;-48
2023/04/04 04:00:54;;;;;;;;;;;-0.80;99.90;;;;;;5051621;28;19924;-48
2023/04/04 04:03:22;;;;;;;;;;;-0.90;99.90;;;;;;5025623;28;19936;-47
2023/04/04 04:05:49;;;;;;;;;;;-0.90;99.90;;;;;;5045037;28;19920;-49
2023/04/04 04:08:16;;;;;;;;;;;-0.90;99.90;;;;;;5025270;28;19971;-48
2023/04/04 04:10:43;;;;;;;;;;;-1.00;99.90;;;;;;5048316;28;19971;-47
2023/04/04 04:13:09;;;;;;;;;;;-1.00;99.90;;;;;;5032598;28;19947;-49
2023/04/04 04:15:36;;;;;;;;;;;-1.00;99.90;;;;;;5053108;28;20012;-48
2023/04/04 04:18:06;;;;;;;;;;;-1.00;99.90;;;;;;5053194;28;19978;-48
2023/04/04 04:20:33;;;;;;;;;;;-1.00;99.90;;;;;;5035568;28;19921;-47
2023/04/04 04:22:59;;;;;;;;;;;-1.00;99.90;;;;;;5055445;28;20335;-48
2023/04/04 04:25:26;;;;;;;;;;;-1.00;99.90;;;;;;5036527;28;19932;-49
2023/04/04 04:28:00;;;;;;;;;;;-1.00;99.90;;;;;;5053068;28;19947;-49
2023/04/04 04:30:27;;;;;;;;;;;-1.10;99.90;;;;;;5052665;28;20274;-49
2023/04/04 04:32:54;;;;;;;;;;;-1.10;99.90;;;;;;5047652;28;19928;-48
2023/04/04 04:35:26;;;;;;;;;;;-1.00;99.90;;;;;;5052844;28;19963;-48
2023/04/04 04:37:54;;;;;;;;;;;-1.00;99.90;;;;;;5053074;28;19986;-47
2023/04/04 04:40:21;;;;;;;;;;;-1.10;99.90;;;;;;5032980;28;20012;-48
2023/04/04 04:42:56;;;;;;;;;;;-1.10;99.90;;;;;;5034533;28;20007;-52
2023/04/04 04:45:23;;;;;;;;;;;-1.10;99.90;;;;;;5039010;28;20292;-48
2023/04/04 04:48:02;;;;;;;;;;;-1.10;99.90;;;;;;5030835;28;20533;-48
2023/04/04 04:50:31;;;;;;;;;;;-1.10;99.90;;;;;;5031459;28;20344;-49
2023/04/04 04:52:58;;;;;;;;;;;-1.10;99.90;;;;;;5015580;28;20000;-49
2023/04/04 04:55:25;;;;;;;;;;;-1.10;99.90;;;;;;5053570;28;19921;-48
2023/04/04 04:58:05;;;;;;;;;;;-1.00;99.90;;;;;;5015554;28;20364;-49
2023/04/04 05:00:32;;;;;;;;;;;-1.00;99.90;;;;;;5052203;28;19926;-52
2023/04/04 05:02:59;;;;;;;;;;;-1.00;99.90;;;;;;5047088;28;19967;-54
2023/04/04 05:05:37;;;;;;;;;;;-1.00;99.90;;;;;;5034364;28;20540;-49
2023/04/04 05:08:08;;;;;;;;;;;-1.00;99.90;;;;;;5035641;28;19920;-48
2023/04/04 05:10:40;;;;;;;;;;;-1.00;99.90;;;;;;5053127;28;20273;-48
2023/04/04 05:13:08;;;;;;;;;;;-1.00;99.90;;;;;;5051786;28;19928;-53
2023/04/04 05:15:41;;;;;;;;;;;-1.10;99.90;;;;;;5034283;28;19927;-50
2023/04/04 05:18:08;;;;;;;;;;;-1.10;99.90;;;;;;5052190;28;20345;-48
2023/04/04 05:20:36;;;;;;;;;;;-1.00;99.90;;;;;;5033708;28;19960;-49
2023/04/04 05:23:05;;;;;;;;;;;-1.00;99.90;;;;;;5034935;28;19967;-50
2023/04/04 05:25:36;;;;;;;;;;;-1.00;99.90;;;;;;5051891;28;19931;-48
2023/04/04 05:28:03;;;;;;;;;;;-1.00;99.90;;;;;;5049817;28;19928;-49
2023/04/04 05:30:31;;;;;;;;;;;-0.90;99.90;;;;;;5025485;28;19921;-51
2023/04/04 05:33:12;;;;;;;;;;;-1.00;99.90;;;;;;5019837;28;19936;-47
2023/04/04 05:35:43;;;;;;;;;;;-0.90;99.90;;;;;;5030109;28;19944;-48
2023/04/04 05:38:12;;;;;;;;;;;-0.90;99.90;;;;;;5031256;28;19936;-48
2023/04/04 05:40:39;;;;;;;;;;;-0.90;99.90;;;;;;5029409;28;19928;-49
2023/04/04 05:43:11;;;;;;;;;;;-0.90;99.90;;;;;;5031144;28;19924;-48
2023/04/04 05:45:49;;;;;;;;;;;-0.90;99.90;;;;;;5047760;28;19921;-50
2023/04/04 05:48:16;;;;;;;;;;;-0.80;99.90;;;;;;5051572;28;19931;-49
2023/04/04 05:50:51;;;;;;;;;;;-0.70;99.90;;;;;;5034728;28;19924;-48
2023/04/04 05:53:23;;;;;;;;;;;-0.60;99.90;;;;;;5037283;28;20019;-48
2023/04/04 05:55:52;;;;;;;;;;;-0.50;99.90;;;;;;5034491;28;19946;-47
2023/04/04 05:58:20;;;;;;;;;;;-0.40;99.90;;;;;;5032430;28;19921;-48
2023/04/04 06:00:52;;;;;;;;;;;-0.30;99.90;;;;;;5051196;28;19927;-48
2023/04/04 06:03:19;;;;;;;;;;;-0.30;99.90;;;;;;5052386;28;19979;-48
2023/04/04 06:05:49;;;;;;;;;;;-0.30;99.90;;;;;;5034410;28;19921;-48
2023/04/04 06:08:15;;;;;;;;;;;-0.30;99.90;;;;;;5051790;28;20392;-49
2023/04/04 06:10:43;;;;;;;;;;;-0.40;99.90;;;;;;5034680;28;20296;-47
2023/04/04 06:13:11;;;;;;;;;;;-0.30;99.90;;;;;;5054089;28;19943;-50
2023/04/04 06:15:40;;;;;;;;;;;-0.20;99.90;;;;;;5034164;28;19924;-50
2023/04/04 06:18:36;;;;;;;;;;;-0.10;99.90;;;;;;5104683;22;20360;-51
2023/04/04 06:21:28;;;;;;;;;;;0.00;99.90;;;;;;5071369;28;19932;-51
2023/04/04 06:23:55;;;;;;;;;;;0.10;99.90;;;;;;5090834;28;20352;-51
2023/04/04 06:26:22;;;;;;;;;;;0.10;99.90;;;;;;5075995;28;19920;-48
2023/04/04 06:28:50;;;;;;;;;;;0.20;99.90;;;;;;5073622;28;19947;-49
2023/04/04 06:31:22;;;;;;;;;;;0.30;99.90;;;;;;5073306;28;19919;-50
2023/04/04 06:33:51;;;;;;;;;;;0.30;99.90;;;;;;5073647;28;19919;-50
2023/04/04 06:36:21;;;;;;;;;;;0.40;99.90;;;;;;5092187;28;19926;-51
2023/04/04 06:38:48;;;;;;;;;;;0.40;99.90;;;;;;5112549;28;19989;-52
2023/04/04 06:41:18;;;;;;;;;;;0.50;99.90;;;;;;5093701;28;19980;-48
2023/04/04 06:43:47;;;;;;;;;;;0.50;99.90;;;;;;5090271;28;19928;-53
2023/04/04 06:46:14;;;;;;;;;;;0.60;99.90;;;;;;5110529;28;20398;-49
2023/04/04 06:48:41;;;;;;;;;;;0.60;99.90;;;;;;5111496;28;19973;-50
2023/04/04 06:51:08;;;;;;;;;;;0.70;99.90;;;;;;5094118;28;20034;-50
2023/04/04 06:53:37;;;;;;;;;;;0.80;99.90;;;;;;5083086;28;20567;-49
2023/04/04 06:56:04;;;;;;;;;;;0.90;99.90;;;;;;5073672;28;19920;-48
2023/04/04 06:58:31;;;;;;;;;;;1.00;99.90;;;;;;5072960;28;19969;-53
2023/04/04 07:01:00;;;;;;;;;;;1.00;99.90;;;;;;5092964;28;19920;-48
2023/04/04 07:03:26;;;;;;;;;;;1.10;99.90;;;;;;5091292;28;19927;-51
2023/04/04 07:05:53;;;;;;;;;;;1.10;99.90;;;;;;5094910;28;19941;-49
2023/04/04 07:08:20;;;;;;;;;;;1.20;99.90;;;;;;5092425;28;19950;-49
2023/04/04 07:10:46;;;;;;;;;;;1.30;99.90;;;;;;5091301;28;19931;-49
2023/04/04 07:13:13;;;;;;;;;;;1.40;99.90;;;;;;5090834;28;20098;-50
2023/04/04 07:15:47;;;;;;;;;;;1.50;99.90;;;;;;5092391;28;19966;-49
2023/04/04 07:18:14;;;;;;;;;;;1.50;99.90;;;;;;5093696;28;19927;-50
2023/04/04 07:20:42;;;;;;;;;;;1.50;99.90;;;;;;5091289;28;19970;-51
2023/04/04 07:23:10;;;;;;;;;;;1.60;99.90;;;;;;5090757;28;19965;-49
2023/04/04 07:25:37;;;;;;;;;;;1.60;99.90;;;;;;5073608;28;20014;-49
2023/04/04 07:28:04;;;;;;;;;;;1.70;99.90;;;;;;5090938;28;19920;-50
2023/04/04 07:30:38;;;;;;;;;;;1.80;99.90;;;;;;5090770;28;19923;-48
2023/04/04 07:33:05;;;;;;;;;;;1.90;99.90;;;;;;5091450;28;19927;-49
2023/04/04 07:35:31;;;;;;;;;;;2.10;99.90;;;;;;5094012;28;19920;-51
2023/04/04 07:37:58;;;;;;;;;;;2.20;99.90;;;;;;5091312;28;20505;-50
2023/04/04 07:40:26;;;;;;;;;;;2.30;99.90;;;;;;5094363;28;20273;-49
2023/04/04 07:42:53;;;;;;;;;;;2.40;99.90;;;;;;5091426;28;19926;-48
2023/04/04 07:45:21;;;;;;;;;;;2.50;99.90;;;;;;5110482;28;19923;-49
2023/04/04 07:47:47;;;;;;;;;;;2.50;99.90;;;;;;5111450;28;19924;-50
2023/04/04 07:50:14;;;;;;;;;;;2.40;99.90;;;;;;5096936;28;19977;-49
2023/04/04 07:52:41;;;;;;;;;;;2.60;99.90;;;;;;5098106;28;19963;-48
2023/04/04 07:55:07;;;;;;;;;;;2.60;99.90;;;;;;5102200;28;19959;-49
2023/04/04 07:57:38;;;;;;;;;;;2.60;99.90;;;;;;5101478;28;19920;-48
2023/04/04 08:00:10;;;;;;;;;;;2.80;99.90;;;;;;5102400;28;19920;-49
2023/04/04 08:02:41;;;;;;;;;;;2.90;99.90;;;;;;5106556;28;19920;-49
2023/04/04 08:05:08;;;;;;;;;;;3.00;99.90;;;;;;5106564;28;20348;-50
2023/04/04 08:07:35;;;;;;;;;;;3.00;99.60;;;;;;5097766;28;19972;-51
2023/04/04 08:10:02;;;;;;;;;;;3.00;99.80;;;;;;5110178;28;19962;-52
2023/04/04 08:12:28;;;;;;;;;;;3.20;99.90;;;;;;5097279;28;19973;-48
2023/04/04 08:14:55;;;;;;;;;;;3.30;99.90;;;;;;5103454;28;19969;-51
2023/04/04 08:17:22;;;;;;;;;;;3.20;99.90;;;;;;5114442;28;19920;-50
2023/04/04 08:19:48;;;;;;;;;;;3.40;99.70;;;;;;5112733;28;19973;-51
2023/04/04 08:22:15;;;;;;;;;;;3.40;99.90;;;;;;5095885;28;19959;-51
2023/04/04 08:24:42;;;;;;;;;;;3.50;99.70;;;;;;5113583;28;20379;-50
2023/04/04 08:27:08;;;;;;;;;;;3.20;98.50;;;;;;5112325;28;19955;-50
2023/04/04 08:29:35;;;;;;;;;;;3.50;97.20;;;;;;5106167;28;20388;-50
2023/04/04 08:32:02;;;;;;;;;;;3.50;98.90;;;;;;5101594;28;19998;-49
2023/04/04 08:34:28;;;;;;;;;;;3.60;98.80;;;;;;5114219;28;19919;-49
2023/04/04 08:36:55;;;;;;;;;;;3.50;96.70;;;;;;5109532;28;20022;-50
2023/04/04 08:39:22;;;;;;;;;;;3.50;97.00;;;;;;5094494;28;19920;-49
2023/04/04 08:41:53;;;;;;;;;;;3.50;97.10;;;;;;5092486;28;19972;-48
2023/04/04 08:44:21;;;;;;;;;;;3.70;97.10;;;;;;5104606;28;19997;-52
2023/04/04 08:46:48;;;;;;;;;;;3.80;99.10;;;;;;5111463;28;19920;-51
2023/04/04 08:49:17;;;;;;;;;;;3.90;97.80;;;;;;5099820;28;19919;-50
2023/04/04 08:51:44;;;;;;;;;;;4.00;96.60;;;;;;5114461;28;19982;-49
2023/04/04 08:54:11;;;;;;;;;;;4.00;96.80;;;;;;5108238;28;20048;-50
2023/04/04 08:56:38;;;;;;;;;;;4.00;97.10;;;;;;5101048;28;19959;-49
2023/04/04 08:59:05;;;;;;;;;;;3.80;96.50;;;;;;5108857;28;20014;-50
2023/04/04 09:01:32;;;;;;;;;;;3.80;94.80;;;;;;5109076;28;19942;-50
2023/04/04 09:03:59;;;;;;;;;;;3.70;95.50;;;;;;5101531;28;19946;-50
2023/04/04 09:06:26;;;;;;;;;;;3.60;95.00;;;;;;5098167;28;19920;-50
2023/04/04 09:08:53;;;;;;;;;;;3.40;94.00;;;;;;5112328;27;20315;-51
2023/04/04 09:11:21;;;;;;;;;;;3.60;96.10;;;;;;5101461;28;20339;-49
2023/04/04 09:13:49;;;;;;;;;;;3.70;95.60;;;;;;5109247;28;19959;-48
2023/04/04 09:16:16;;;;;;;;;;;3.80;94.60;;;;;;5113377;28;19927;-49
2023/04/04 09:18:42;;;;;;;;;;;3.80;94.80;;;;;;5107428;28;19927;-52
2023/04/04 09:21:10;;;;;;;;;;;3.80;94.10;;;;;;5094374;28;19923;-49
2023/04/04 09:23:37;;;;;;;;;;;3.70;95.60;;;;;;5093500;28;20031;-50
2023/04/04 09:26:05;;;;;;;;;;;3.60;94.00;;;;;;5093193;28;19985;-49
2023/04/04 09:28:32;;;;;;;;;;;3.50;93.90;;;;;;5093293;28;19927;-50
2023/04/04 09:31:00;;;;;;;;;;;3.60;94.50;;;;;;5110806;28;19920;-50
2023/04/04 09:33:27;;;;;;;;;;;3.60;93.20;;;;;;5113046;28;19938;-52
2023/04/04 09:35:56;;;;;;;;;;;3.90;94.20;;;;;;5113332;28;19965;-49
2023/04/04 09:38:23;;;;;;;;;;;4.10;92.90;;;;;;5105824;28;19926;-53
2023/04/04 09:40:51;;;;;;;;;;;4.30;94.20;;;;;;5096905;28;19926;-49
2023/04/04 09:43:20;;;;;;;;;;;4.30;91.90;;;;;;5093003;28;20403;-49
2023/04/04 09:45:47;;;;;;;;;;;4.40;92.10;;;;;;5092977;28;20392;-52
2023/04/04 09:48:25;;;;;;;;;;;4.40;93.20;;;;;;5096072;28;19919;-50
2023/04/04 09:50:51;;;;;;;;;;;4.60;92.40;;;;;;5092792;28;20376;-52
2023/04/04 09:53:18;;;;;;;;;;;4.60;92.60;;;;;;5092193;28;20376;-49
2023/04/04 09:55:49;;;;;;;;;;;4.90;92.20;;;;;;5092744;28;19991;-53
2023/04/04 09:58:17;;;;;;;;;;;5.10;92.00;;;;;;5096201;28;19976;-51
2023/04/04 10:00:47;;;;;;;;;;;5.40;94.00;;;;;;5093318;28;19920;-50
2023/04/04 10:03:14;;;;;;;;;;;5.40;91.80;;;;;;5092458;28;20003;-52
2023/04/04 10:05:43;;;;;;;;;;;5.40;92.10;;;;;;5095546;28;20348;-49
2023/04/04 10:08:13;;;;;;;;;;;5.40;90.60;;;;;;5091766;28;19924;-52
2023/04/04 10:10:48;;;;;;;;;;;5.40;91.90;;;;;;5092024;28;19920;-52
2023/04/04 10:13:34;;;;;;;;;;;5.30;91.80;;;;;;5098538;28;19971;-52
2023/04/04 10:16:02;;;;;;;;;;;5.10;91.20;;;;;;5094461;28;19927;-51
2023/04/04 10:18:30;;;;;;;;;;;4.80;90.60;;;;;;5091883;28;19939;-53
2023/04/04 10:20:58;;;;;;;;;;;4.80;91.60;;;;;;5092503;28;20053;-52
2023/04/04 10:23:41;;;;;;;;;;;4.80;91.30;;;;;;5092502;28;19920;-50
2023/04/04 10:26:07;;;;;;;;;;;4.60;90.20;;;;;;5091829;28;19924;-50
2023/04/04 10:28:34;;;;;;;;;;;4.50;91.60;;;;;;5091512;28;19920;-49
2023/04/04 10:31:20;;;;;;;;;;;4.60;91.70;;;;;;5092483;28;19932;-51
2023/04/04 10:33:51;;;;;;;;;;;4.70;92.50;;;;;;5100659;28;19927;-53
2023/04/04 10:36:26;;;;;;;;;;;5.10;92.40;;;;;;5099951;28;19923;-52
2023/04/04 10:39:13;;;;;;;;;;;5.70;92.00;;;;;;5107989;28;19920;-51
2023/04/04 10:41:40;;;;;;;;;;;5.80;90.30;;;;;;5112538;28;19962;-51
2023/04/04 10:44:28;;;;;;;;;;;5.90;86.80;;;;;;5107895;28;19960;-50
2023/04/04 10:46:57;;;;;;;;;;;5.70;90.00;;;;;;5100927;28;20349;-50
2023/04/04 10:49:24;;;;;;;;;;;5.80;89.90;;;;;;5111610;28;19923;-50
2023/04/04 10:51:51;;;;;;;;;;;5.60;89.50;;;;;;5111184;28;19920;-50
2023/04/04 10:54:24;;;;;;;;;;;5.50;91.20;;;;;;5099953;28;19965;-51
2023/04/04 10:56:51;;;;;;;;;;;5.50;90.10;;;;;;5099998;28;20348;-50
2023/04/04 10:59:17;;;;;;;;;;;5.40;88.60;;;;;;5111566;28;20004;-50
2023/04/04 11:01:57;;;;;;;;;;;5.70;88.70;;;;;;5111866;28;19989;-50
2023/04/04 11:04:30;;;;;;;;;;;5.90;89.40;;;;;;5096991;28;20295;-50
2023/04/04 11:07:04;;;;;;;;;;;5.70;90.10;;;;;;5091813;28;20363;-51
2023/04/04 11:09:50;;;;;;;;;;;5.20;90.80;;;;;;5098249;28;19974;-50
2023/04/04 11:12:22;;;;;;;;;;;4.90;90.40;;;;;;5091267;28;20330;-50
2023/04/04 11:14:55;;;;;;;;;;;4.90;91.90;;;;;;5091342;28;19946;-52
2023/04/04 11:17:48;;;;;;;;;;;4.90;89.10;;;;;;5095986;28;19955;-51
2023/04/04 11:20:15;;;;;;;;;;;4.70;89.40;;;;;;5102891;28;19969;-51
2023/04/04 11:22:44;;;;;;;;;;;4.60;89.60;;;;;;5112103;28;19994;-51
2023/04/04 11:25:23;;;;;;;;;;;4.60;87.70;;;;;;5099474;28;20296;-50
2023/04/04 11:27:53;;;;;;;;;;;4.80;86.40;;;;;;5091186;28;19959;-53
2023/04/04 11:30:20;;;;;;;;;;;4.90;90.10;;;;;;5073052;28;20010;-53
2023/04/04 11:32:47;;;;;;;;;;;4.80;91.80;;;;;;5099817;28;19966;-54
2023/04/04 11:35:29;;;;;;;;;;;4.90;91.20;;;;;;5091456;28;19920;-50
2023/04/04 11:37:56;;;;;;;;;;;4.90;90.40;;;;;;5108671;28;19965;-51
2023/04/04 11:40:35;;;;;;;;;;;5.00;90.10;;;;;;5111913;28;19959;-52
2023/04/04 11:43:06;;;;;;;;;;;5.00;90.30;;;;;;5107648;28;19920;-50
2023/04/04 11:45:33;;;;;;;;;;;5.00;90.60;;;;;;5091844;28;20416;-50
2023/04/04 11:48:00;;;;;;;;;;;5.00;90.70;;;;;;5091086;28;20403;-51
2023/04/04 11:50:33;;;;;;;;;;;5.20;90.30;;;;;;5094812;28;19924;-53
2023/04/04 11:53:03;;;;;;;;;;;5.10;90.30;;;;;;5106338;28;19955;-49
2023/04/04 11:55:30;;;;;;;;;;;5.40;88.60;;;;;;5101594;28;20292;-51
2023/04/04 11:58:04;;;;;;;;;;;5.40;91.00;;;;;;5111753;28;20019;-49
2023/04/04 12:00:34;;;;;;;;;;;5.40;88.90;;;;;;5112207;28;20440;-48
2023/04/04 12:03:03;;;;;;;;;;;5.50;90.00;;;;;;5109263;28;19978;-51
2023/04/04 12:05:30;;;;;;;;;;;5.50;89.80;;;;;;5110582;28;19978;-50
2023/04/04 12:07:58;;;;;;;;;;;5.70;84.90;;;;;;5094289;28;19967;-50
2023/04/04 12:10:25;;;;;;;;;;;5.60;87.20;;;;;;5094569;28;19997;-49
2023/04/04 12:12:54;;;;;;;;;;;5.60;87.60;;;;;;5094006;28;20019;-51
2023/04/04 12:15:22;;;;;;;;;;;5.60;87.50;;;;;;5095495;28;19963;-47
2023/04/04 12:21:56;;;;;;;;;;;6.20;87.90;;;;;;5090722;28;19934;-51
2023/04/04 12:24:22;;;;;;;;;;;6.60;85.90;;;;;;5094762;28;19919;-48
2023/04/04 12:26:51;;;;;;;;;;;6.60;89.00;;;;;;5091949;28;20037;-50
2023/04/04 12:29:19;;;;;;;;;;;6.70;88.80;;;;;;5065480;28;20273;-47
2023/04/04 12:31:46;;;;;;;;;;;6.90;83.30;;;;;;5073869;28;19968;-48
2023/04/04 12:34:18;;;;;;;;;;;7.10;85.90;;;;;;5074423;28;19951;-47
2023/04/04 12:36:47;;;;;;;;;;;7.40;86.00;;;;;;5078431;28;19965;-48
2023/04/04 12:39:15;;;;;;;;;;;7.50;83.50;;;;;;5074154;28;19952;-48
2023/04/04 12:41:52;;;;;;;;;;;7.60;82.20;;;;;;5066323;28;19920;-47
2023/04/04 12:44:28;;;;;;;;;;;7.50;83.70;;;;;;5074278;28;19924;-48
2023/04/04 12:46:56;;;;;;;;;;;7.50;81.10;;;;;;5073360;28;20369;-47
2023/04/04 12:49:26;;;;;;;;;;;7.40;79.60;;;;;;5072125;28;19921;-48
2023/04/04 12:51:53;;;;;;;;;;;7.40;80.60;;;;;;5062700;28;19921;-47
2023/04/04 12:54:32;;;;;;;;;;;7.30;77.80;;;;;;5073896;28;19956;-49
2023/04/04 12:57:01;;;;;;;;;;;6.70;82.20;;;;;;5073901;28;19975;-48
2023/04/04 12:59:28;;;;;;;;;;;6.70;81.80;;;;;;5067200;28;19920;-49
2023/04/04 13:01:55;;;;;;;;;;;6.40;81.40;;;;;;5066260;28;19947;-48
2023/04/04 13:04:22;;;;;;;;;;;6.50;85.20;;;;;;5073860;28;20006;-49
2023/04/04 13:06:50;;;;;;;;;;;6.50;83.70;;;;;;5073285;28;19962;-49
2023/04/04 13:09:21;;;;;;;;;;;6.60;83.80;;;;;;5065568;28;20408;-48
2023/04/04 13:12:00;;;;;;;;;;;6.40;83.10;;;;;;5073195;28;20018;-48
2023/04/04 13:14:47;;;;;;;;;;;6.40;82.30;;;;;;5073467;28;19921;-47
2023/04/04 13:17:14;;;;;;;;;;;6.60;83.20;;;;;;5069958;28;19919;-48
2023/04/04 13:19:41;;;;;;;;;;;7.10;80.60;;;;;;5068111;28;19920;-48
2023/04/04 13:22:08;;;;;;;;;;;7.10;80.60;;;;;;5072839;28;19964;-48
2023/04/04 13:24:34;;;;;;;;;;;7.00;82.90;;;;;;5073346;28;19920;-48
2023/04/04 13:27:01;;;;;;;;;;;6.80;82.90;;;;;;5071320;28;20058;-47
2023/04/04 13:29:27;;;;;;;;;;;6.50;81.20;;;;;;5069289;28;19967;-49
2023/04/04 13:31:55;;;;;;;;;;;6.20;84.40;;;;;;5054905;28;19920;-48
2023/04/04 13:34:25;;;;;;;;;;;6.20;86.30;;;;;;5072018;28;19966;-48
2023/04/04 13:36:52;;;;;;;;;;;6.10;83.70;;;;;;5073076;28;19981;-49
2023/04/04 13:39:19;;;;;;;;;;;6.40;84.80;;;;;;5064165;28;20380;-49
2023/04/04 13:41:46;;;;;;;;;;;6.60;84.60;;;;;;5072846;28;19954;-47
2023/04/04 13:44:13;;;;;;;;;;;6.50;84.30;;;;;;5072501;28;20019;-49
2023/04/04 13:46:39;;;;;;;;;;;6.30;84.80;;;;;;5070641;28;19958;-48
2023/04/04 13:49:06;;;;;;;;;;;6.20;85.00;;;;;;5071847;28;19929;-48
2023/04/04 13:51:33;;;;;;;;;;;6.10;84.30;;;;;;5073174;28;20335;-48
2023/04/04 13:53:59;;;;;;;;;;;6.20;85.30;;;;;;5072133;28;20019;-48
2023/04/04 13:56:26;;;;;;;;;;;6.10;82.20;;;;;;5072842;28;19924;-48
2023/04/04 13:58:53;;;;;;;;;;;6.10;81.50;;;;;;5067651;28;20369;-50
2023/04/04 14:01:23;;;;;;;;;;;6.10;81.80;;;;;;5072653;28;20380;-48
2023/04/04 14:03:49;;;;;;;;;;;6.10;84.30;;;;;;5072363;28;19927;-49
2023/04/04 14:06:16;;;;;;;;;;;6.20;82.90;;;;;;5072540;28;20370;-50
2023/04/04 14:08:44;;;;;;;;;;;6.20;81.70;;;;;;5067274;28;19925;-48
2023/04/04 14:11:11;;;;;;;;;;;6.20;81.70;;;;;;5072217;28;20373;-51
2023/04/04 14:13:38;;;;;;;;;;;6.20;81.50;;;;;;5070624;28;19974;-48
2023/04/04 14:16:06;;;;;;;;;;;6.20;80.80;;;;;;5066583;28;19970;-49
2023/04/04 14:18:33;;;;;;;;;;;6.10;79.40;;;;;;5071641;28;19920;-48
2023/04/04 14:21:01;;;;;;;;;;;6.10;81.70;;;;;;5072205;28;19921;-50
2023/04/04 14:23:29;;;;;;;;;;;6.20;83.00;;;;;;5071653;28;20338;-50
2023/04/04 14:25:56;;;;;;;;;;;6.30;83.60;;;;;;5072297;28;19974;-48
2023/04/04 14:28:23;;;;;;;;;;;6.30;80.20;;;;;;5064411;28;19920;-48
2023/04/04 14:30:52;;;;;;;;;;;6.20;82.90;;;;;;5072047;28;20277;-49
2023/04/04 14:33:19;;;;;;;;;;;6.30;81.20;;;;;;5071742;28;20114;-49
2023/04/04 14:35:46;;;;;;;;;;;6.20;82.80;;;;;;5072120;28;20338;-48
2023/04/04 14:38:12;;;;;;;;;;;6.50;81.70;;;;;;5065163;28;19928;-48
2023/04/04 14:40:39;;;;;;;;;;;6.10;87.20;;;;;;5071653;28;19920;-51